createdAt,value
2018-11-23T00:00:32.707Z,24.17
2018-11-23T00:03:02.232Z,26.57
2018-11-23T00:05:31.457Z,28.03
2018-11-23T00:08:01.161Z,24.93
2018-11-23T00:10:31.772Z,27.83
2018-11-23T00:13:01.026Z,27.00
2018-11-23T00:15:30.271Z,24.43
2018-11-23T00:17:59.595Z,24.37
2018-11-23T00:20:29.793Z,24.87
2018-11-23T00:22:59.151Z,24.50
2018-11-23T00:25:28.914Z,25.30
2018-11-23T00:27:58.733Z,26.53
2018-11-23T00:30:29.457Z,29.20
2018-11-23T00:32:58.774Z,25.60
2018-11-23T00:35:29.489Z,26.27
2018-11-23T00:37:58.786Z,24.03
2018-11-23T00:40:30.137Z,25.50
2018-11-23T00:42:59.845Z,27.03
2018-11-23T00:45:29.155Z,26.60
2018-11-23T00:47:59.265Z,26.03
2018-11-23T00:50:28.773Z,26.93
2018-11-23T00:52:59.094Z,28.47
2018-11-23T00:55:29.118Z,29.70
2018-11-23T00:57:58.440Z,28.70
2018-11-23T01:00:29.984Z,27.73
2018-11-23T01:02:59.886Z,27.03
2018-11-23T01:05:29.133Z,27.93
2018-11-23T01:07:58.537Z,28.60
2018-11-23T01:10:28.705Z,26.80
2018-11-23T01:12:58.514Z,26.20
2018-11-23T01:15:27.786Z,25.87
2018-11-23T01:17:57.117Z,27.10
2018-11-23T01:20:27.243Z,24.77
2018-11-23T01:22:57.253Z,24.33
2018-11-23T01:25:27.372Z,26.87
2018-11-23T01:27:57.462Z,28.40
2018-11-23T01:30:28.948Z,27.13
2018-11-23T01:32:58.218Z,28.37
2018-11-23T01:35:27.473Z,28.67
2018-11-23T01:37:57.766Z,27.00
2018-11-23T01:40:28.501Z,26.37
2018-11-23T01:42:58.134Z,26.50
2018-11-23T01:45:27.438Z,25.70
2018-11-23T01:47:56.680Z,25.70
2018-11-23T01:50:27.339Z,24.43
2018-11-23T01:52:56.612Z,27.03
2018-11-23T01:55:26.354Z,26.27
2018-11-23T01:57:55.729Z,26.63
2018-11-23T02:00:26.508Z,26.73
2018-11-23T02:02:56.246Z,27.40
2018-11-23T02:05:25.601Z,29.23
2018-11-23T02:07:54.894Z,28.97
2018-11-23T02:10:24.127Z,26.47
2018-11-23T02:12:53.698Z,27.17
2018-11-23T02:15:23.624Z,28.47
2018-11-23T02:17:53.124Z,26.00
2018-11-23T02:20:22.885Z,25.63
2018-11-23T02:22:52.169Z,26.57
2018-11-23T02:25:21.429Z,26.63
2018-11-23T02:27:52.174Z,26.63
2018-11-23T02:30:23.217Z,26.80
2018-11-23T02:32:52.634Z,26.93
2018-11-23T02:35:21.951Z,27.67
2018-11-23T02:37:51.349Z,27.17
2018-11-23T02:40:21.233Z,28.50
2018-11-23T02:42:50.490Z,25.53
2018-11-23T02:45:21.069Z,25.60
2018-11-23T02:47:50.700Z,28.03
2018-11-23T02:50:20.093Z,28.23
2018-11-23T02:52:49.481Z,25.93
2018-11-23T02:55:19.722Z,25.83
2018-11-23T02:57:48.994Z,24.57
2018-11-23T03:00:19.841Z,23.93
2018-11-23T03:02:49.169Z,24.53
2018-11-23T03:05:20.113Z,25.20
2018-11-23T03:07:49.583Z,25.93
2018-11-23T03:10:19.104Z,25.90
2018-11-23T03:12:49.032Z,26.00
2018-11-23T03:15:19.542Z,25.53
2018-11-23T03:17:50.367Z,26.77
2018-11-23T03:20:20.998Z,26.80
2018-11-23T03:22:50.233Z,28.20
2018-11-23T03:25:19.567Z,29.27
2018-11-23T03:27:48.902Z,25.67
2018-11-23T03:30:20.512Z,22.60
2018-11-23T03:32:50.571Z,20.90
2018-11-23T03:35:20.486Z,23.17
2018-11-23T03:37:49.797Z,22.30
2018-11-23T03:40:19.116Z,22.17
2018-11-23T03:42:48.456Z,20.47
2018-11-23T03:45:18.101Z,19.67
2018-11-23T03:47:47.701Z,19.37
2018-11-23T03:50:17.721Z,17.43
2018-11-23T03:52:47.330Z,16.33
2018-11-23T03:55:16.571Z,18.00
2018-11-23T03:57:45.923Z,17.77
2018-11-23T04:00:17.766Z,17.13
2018-11-23T04:02:46.995Z,17.70
2018-11-23T04:05:16.705Z,16.43
2018-11-23T04:07:46.179Z,16.87
2018-11-23T04:10:16.346Z,15.73
2018-11-23T04:12:45.934Z,16.97
2018-11-23T04:15:15.646Z,18.03
2018-11-23T04:17:44.944Z,16.67
2018-11-23T04:20:15.399Z,18.40
2018-11-23T04:22:44.673Z,18.23
2018-11-23T04:25:14.381Z,16.20
2018-11-23T04:27:44.089Z,17.63
2018-11-23T04:30:15.034Z,15.40
2018-11-23T04:32:44.768Z,16.87
2018-11-23T04:35:15.446Z,15.63
2018-11-23T04:37:45.757Z,15.67
2018-11-23T04:40:16.138Z,15.10
2018-11-23T04:42:45.953Z,16.17
2018-11-23T04:45:15.569Z,15.43
2018-11-23T04:47:44.961Z,15.83
2018-11-23T04:50:15.580Z,14.87
2018-11-23T04:52:45.108Z,14.57
2018-11-23T04:55:14.413Z,13.33
2018-11-23T04:57:44.454Z,13.87
2018-11-23T05:00:15.551Z,14.73
2018-11-23T05:02:45.593Z,14.00
2018-11-23T05:05:15.121Z,15.23
2018-11-23T05:07:46.545Z,13.73
2018-11-23T05:10:16.740Z,13.60
2018-11-23T05:12:46.199Z,12.57
2018-11-23T05:15:16.793Z,12.97
2018-11-23T05:17:46.287Z,12.87
2018-11-23T05:20:16.104Z,13.23
2018-11-23T05:22:45.712Z,15.97
2018-11-23T05:25:16.432Z,16.23
2018-11-23T05:27:45.810Z,14.80
2018-11-23T05:30:22.578Z,15.70
2018-11-23T05:32:51.834Z,14.60
2018-11-23T05:35:21.081Z,15.10
2018-11-23T05:37:51.660Z,14.87
2018-11-23T05:40:21.458Z,13.47
2018-11-23T05:42:50.793Z,13.30
2018-11-23T05:45:21.382Z,14.40
2018-11-23T05:47:50.889Z,13.87
2018-11-23T05:50:21.845Z,13.93
2018-11-23T05:52:51.133Z,15.60
2018-11-23T05:55:20.430Z,16.53
2018-11-23T05:57:49.832Z,17.60
2018-11-23T06:00:24.455Z,17.17
2018-11-23T06:02:53.724Z,17.97
2018-11-23T06:05:22.983Z,16.57
2018-11-23T06:07:52.356Z,16.17
2018-11-23T06:10:22.278Z,16.00
2018-11-23T06:12:51.674Z,16.20
2018-11-23T06:15:22.305Z,15.70
2018-11-23T06:17:51.806Z,14.57
2018-11-23T06:20:22.859Z,16.47
2018-11-23T06:22:53.076Z,14.83
2018-11-23T06:25:30.277Z,15.00
2018-11-23T06:27:59.678Z,13.53
2018-11-23T06:30:28.978Z,12.57
2018-11-23T06:33:09.109Z,12.77
2018-11-23T06:35:38.460Z,14.70
2018-11-23T06:38:07.884Z,16.03
2018-11-23T06:40:37.144Z,15.87
2018-11-23T06:43:07.555Z,14.20
2018-11-23T06:45:39.375Z,13.57
2018-11-23T06:48:10.009Z,14.37
2018-11-23T06:50:39.273Z,13.53
2018-11-23T06:53:08.741Z,13.87
2018-11-23T06:55:38.175Z,13.27
2018-11-23T06:58:07.852Z,14.13
2018-11-23T07:00:37.145Z,13.43
2018-11-23T07:03:06.456Z,14.37
2018-11-23T07:05:35.762Z,14.90
2018-11-23T07:08:05.686Z,13.77
2018-11-23T07:10:35.185Z,14.10
2018-11-23T07:13:04.537Z,14.73
2018-11-23T07:15:33.978Z,14.63
2018-11-23T07:18:03.294Z,13.97
2018-11-23T07:20:32.589Z,13.97
2018-11-23T07:23:01.894Z,13.60
2018-11-23T07:25:31.684Z,11.77
2018-11-23T07:28:01.114Z,12.43
2018-11-23T07:30:30.747Z,12.53
2018-11-23T07:33:00.042Z,12.33
2018-11-23T07:35:29.428Z,12.23
2018-11-23T07:37:59.225Z,12.20
2018-11-23T07:40:42.040Z,13.53
2018-11-23T07:43:11.350Z,12.70
2018-11-23T07:45:41.017Z,11.50
2018-11-23T07:48:10.750Z,12.73
2018-11-23T07:50:40.438Z,23.40
2018-11-23T07:53:10.002Z,20.10
2018-11-23T07:55:39.310Z,20.57
2018-11-23T07:58:09.704Z,20.70
2018-11-23T08:00:39.016Z,18.07
2018-11-23T08:03:08.322Z,19.27
2018-11-23T08:05:37.641Z,19.00
2018-11-23T08:08:07.942Z,18.17
2018-11-23T08:10:36.581Z,16.87
2018-11-23T08:13:05.855Z,13.73
2018-11-23T08:15:35.129Z,13.70
2018-11-23T08:18:04.640Z,14.10
2018-11-23T08:20:33.924Z,13.67
2018-11-23T08:23:03.207Z,13.90
2018-11-23T08:25:32.689Z,13.77
2018-11-23T08:28:02.073Z,16.17
2018-11-23T08:30:31.528Z,15.67
2018-11-23T08:33:00.801Z,16.57
2018-11-23T08:35:30.175Z,17.17
2018-11-23T08:37:59.434Z,15.87
2018-11-23T08:40:28.754Z,15.67
2018-11-23T08:42:58.197Z,15.57
2018-11-23T08:45:27.978Z,14.87
2018-11-23T08:47:57.365Z,17.07
2018-11-23T08:50:28.578Z,17.63
2018-11-23T08:52:57.879Z,19.57
2018-11-23T08:55:27.472Z,19.13
2018-11-23T08:57:56.725Z,19.50
2018-11-23T09:00:28.056Z,20.10
2018-11-23T09:02:58.874Z,16.67
2018-11-23T09:05:28.157Z,14.77
2018-11-23T09:07:58.002Z,14.83
2018-11-23T09:10:28.834Z,14.97
2018-11-23T09:12:59.865Z,19.83
2018-11-23T09:15:29.138Z,21.23
2018-11-23T09:17:58.410Z,16.87
2018-11-23T09:20:27.766Z,15.43
2018-11-23T09:22:57.285Z,16.03
2018-11-23T09:25:26.544Z,16.23
2018-11-23T09:27:55.956Z,17.23
2018-11-23T09:30:26.433Z,19.13
2018-11-23T09:32:56.465Z,20.27
2018-11-23T09:35:26.063Z,15.40
2018-11-23T09:37:55.519Z,15.70
2018-11-23T09:40:26.789Z,14.83
2018-11-23T09:42:56.552Z,15.50
2018-11-23T09:45:27.348Z,15.73
2018-11-23T09:47:58.208Z,15.60
2018-11-23T09:50:28.122Z,17.10
2018-11-23T09:52:59.025Z,18.47
2018-11-23T09:55:29.177Z,17.53
2018-11-23T09:57:58.578Z,14.10
2018-11-23T10:00:29.451Z,15.30
2018-11-23T10:02:59.441Z,15.80
2018-11-23T10:05:29.529Z,16.30
2018-11-23T10:08:01.198Z,16.37
2018-11-23T10:10:30.684Z,17.13
2018-11-23T10:13:00.037Z,17.37
2018-11-23T10:15:30.640Z,18.40
2018-11-23T10:18:02.376Z,16.20
2018-11-23T10:20:32.948Z,15.60
2018-11-23T10:23:02.581Z,16.33
2018-11-23T10:25:33.091Z,16.87
2018-11-23T10:28:02.671Z,16.27
2018-11-23T10:30:33.308Z,17.03
2018-11-23T10:33:09.025Z,16.53
2018-11-23T10:35:38.277Z,16.70
2018-11-23T10:38:07.940Z,16.47
2018-11-23T10:40:38.774Z,17.60
2018-11-23T10:43:08.585Z,17.63
2018-11-23T10:45:38.293Z,17.50
2018-11-23T10:48:08.629Z,18.70
2018-11-23T10:50:39.445Z,16.83
2018-11-23T10:53:08.870Z,14.93
2018-11-23T10:55:38.768Z,15.07
2018-11-23T10:58:08.097Z,15.97
2018-11-23T11:00:42.494Z,16.10
2018-11-23T11:03:15.858Z,16.57
2018-11-23T11:05:50.109Z,18.27
2018-11-23T11:08:19.406Z,17.90
2018-11-23T11:10:48.811Z,16.83
2018-11-23T11:13:18.175Z,16.90
2018-11-23T11:15:47.501Z,16.97
2018-11-23T11:18:16.862Z,17.30
2018-11-23T11:20:46.112Z,16.97
2018-11-23T11:23:15.445Z,17.40
2018-11-23T11:25:44.827Z,15.77
2018-11-23T11:28:14.138Z,15.90
2018-11-23T11:30:43.442Z,15.97
2018-11-23T11:33:12.748Z,15.70
2018-11-23T11:35:42.027Z,15.07
2018-11-23T11:38:11.333Z,14.20
2018-11-23T11:40:40.613Z,14.13
2018-11-23T11:43:09.885Z,14.03
2018-11-23T11:45:39.149Z,13.90
2018-11-23T11:48:08.518Z,13.37
2018-11-23T11:50:37.859Z,10.93
2018-11-23T11:53:07.121Z,12.60
2018-11-23T11:55:36.649Z,10.63
2018-11-23T11:58:06.029Z,10.53
2018-11-23T12:00:35.327Z,12.07
2018-11-23T12:03:04.602Z,11.07
2018-11-23T12:05:33.919Z,11.60
2018-11-23T12:08:03.255Z,11.00
2018-11-23T12:10:32.570Z,12.53
2018-11-23T12:13:01.849Z,12.17
2018-11-23T12:15:31.125Z,12.97
2018-11-23T12:18:01.549Z,11.03
2018-11-23T12:20:30.844Z,11.73
2018-11-23T12:23:00.082Z,11.47
2018-11-23T12:25:29.348Z,12.23
2018-11-23T12:27:59.038Z,11.53
2018-11-23T12:30:28.289Z,9.73
2018-11-23T12:32:57.616Z,10.83
2018-11-23T12:35:26.898Z,10.73
2018-11-23T12:37:56.338Z,9.87
2018-11-23T12:40:25.609Z,9.47
2018-11-23T12:42:54.917Z,10.87
2018-11-23T12:45:24.425Z,12.30
2018-11-23T12:47:53.828Z,13.23
2018-11-23T12:50:23.899Z,13.67
2018-11-23T12:52:53.231Z,12.63
2018-11-23T12:55:22.512Z,12.47
2018-11-23T12:57:51.904Z,12.40
2018-11-23T13:00:23.479Z,11.60
2018-11-23T13:02:54.306Z,11.87
2018-11-23T13:05:24.513Z,12.00
2018-11-23T13:07:54.941Z,12.57
2018-11-23T13:10:25.291Z,13.17
2018-11-23T13:12:55.385Z,12.47
2018-11-23T13:15:24.721Z,11.10
2018-11-23T13:17:54.263Z,10.07
2018-11-23T13:20:23.625Z,11.03
2018-11-23T13:22:53.101Z,10.27
2018-11-23T13:25:26.959Z,9.83
2018-11-23T13:27:56.724Z,8.83
2018-11-23T13:30:28.577Z,8.17
2018-11-23T13:32:57.993Z,8.57
2018-11-23T13:35:27.278Z,8.90
2018-11-23T13:37:56.953Z,9.00
2018-11-23T13:40:27.341Z,7.50
2018-11-23T13:42:57.772Z,7.27
2018-11-23T13:45:29.513Z,7.70
2018-11-23T13:47:58.839Z,8.30
2018-11-23T13:50:28.572Z,8.53
2018-11-23T13:52:59.344Z,8.50
2018-11-23T13:55:28.620Z,7.77
2018-11-23T13:57:57.962Z,8.13
2018-11-23T14:00:28.706Z,7.60
2018-11-23T14:02:57.987Z,6.93
2018-11-23T14:05:29.020Z,7.13
2018-11-23T14:07:59.522Z,8.03
2018-11-23T14:10:29.418Z,7.27
2018-11-23T14:12:58.889Z,6.77
2018-11-23T14:15:29.517Z,6.27
2018-11-23T14:17:59.816Z,6.10
2018-11-23T14:20:29.530Z,7.00
2018-11-23T14:22:58.798Z,7.00
2018-11-23T14:25:29.476Z,6.93
2018-11-23T14:27:59.073Z,6.50
2018-11-23T14:30:30.933Z,5.87
2018-11-23T14:33:01.154Z,5.93
2018-11-23T14:35:31.372Z,6.17
2018-11-23T14:38:01.106Z,6.07
2018-11-23T14:40:30.402Z,5.80
2018-11-23T14:42:59.751Z,6.80
2018-11-23T14:45:31.655Z,11.37
2018-11-23T14:48:02.448Z,7.30
2018-11-23T14:50:33.032Z,10.20
2018-11-23T14:53:02.477Z,8.50
2018-11-23T14:55:32.056Z,7.10
2018-11-23T14:58:01.445Z,5.23
2018-11-23T15:00:32.282Z,6.80
2018-11-23T15:03:02.606Z,6.53
2018-11-23T15:05:31.967Z,5.83
2018-11-23T15:08:01.526Z,6.03
2018-11-23T15:10:32.052Z,6.40
2018-11-23T15:13:02.250Z,6.57
2018-11-23T15:15:33.909Z,7.10
2018-11-23T15:18:03.428Z,7.40
2018-11-23T15:20:35.684Z,8.00
2018-11-23T15:23:06.926Z,7.47
2018-11-23T15:25:36.258Z,7.17
2018-11-23T15:28:06.334Z,7.17
2018-11-23T15:30:36.773Z,7.53
2018-11-23T15:33:06.550Z,6.83
2018-11-23T15:35:36.729Z,5.67
2018-11-23T15:38:10.247Z,6.70
2018-11-23T15:40:36.484Z,6.77
2018-11-23T15:43:07.478Z,6.57
2018-11-23T15:45:37.007Z,6.50
2018-11-23T15:48:07.293Z,5.37
2018-11-23T15:50:37.958Z,6.00
2018-11-23T15:53:08.849Z,6.03
2018-11-23T15:55:41.862Z,9.20
2018-11-23T15:58:12.713Z,11.20
2018-11-23T16:00:43.450Z,7.70
2018-11-23T16:03:14.009Z,9.50
2018-11-23T16:05:43.316Z,9.93
2018-11-23T16:08:15.192Z,9.50
2018-11-23T16:10:44.517Z,9.60
2018-11-23T16:13:14.029Z,10.33
2018-11-23T16:15:43.338Z,10.33
2018-11-23T16:18:13.385Z,11.53
2018-11-23T16:20:44.212Z,11.57
2018-11-23T16:23:14.958Z,11.17
2018-11-23T16:25:44.901Z,9.43
2018-11-23T16:28:14.574Z,10.90
2018-11-23T16:30:45.385Z,10.03
2018-11-23T16:33:16.335Z,11.27
2018-11-23T16:35:46.320Z,12.10
2018-11-23T16:38:17.188Z,13.77
2018-11-23T16:40:48.310Z,12.00
2018-11-23T16:43:17.633Z,11.43
2018-11-23T16:45:47.250Z,11.77
2018-11-23T16:48:21.122Z,12.37
2018-11-23T16:50:53.954Z,11.67
2018-11-23T16:53:26.323Z,14.87
2018-11-23T16:55:57.497Z,11.63
2018-11-23T16:58:45.302Z,12.70
2018-11-23T17:01:19.885Z,12.70
2018-11-23T17:03:54.356Z,12.00
2018-11-23T17:06:30.385Z,11.77
2018-11-23T17:11:37.669Z,12.77
2018-11-23T17:14:06.993Z,23.80
2018-11-23T17:16:36.296Z,16.40
2018-11-23T17:19:05.643Z,18.97
2018-11-23T17:21:35.077Z,12.97
2018-11-23T17:24:04.380Z,15.23
2018-11-23T17:26:33.750Z,15.67
2018-11-23T17:29:03.115Z,15.00
2018-11-23T17:31:32.383Z,13.60
2018-11-23T17:34:01.719Z,14.47
2018-11-23T17:36:31.014Z,15.57
2018-11-23T17:39:00.422Z,14.23
2018-11-23T17:41:29.721Z,14.47
2018-11-23T17:43:59.034Z,15.63
2018-11-23T17:46:28.429Z,16.93
2018-11-23T17:48:57.717Z,17.97
2018-11-23T17:51:27.010Z,16.27
2018-11-23T17:53:56.356Z,16.83
2018-11-23T17:56:25.640Z,17.40
2018-11-23T17:58:54.894Z,17.67
2018-11-23T18:01:24.226Z,17.67
2018-11-23T18:03:53.521Z,18.77
2018-11-23T18:06:22.832Z,18.37
2018-11-23T18:08:52.268Z,18.70
2018-11-23T18:11:21.546Z,18.07
2018-11-23T18:13:50.821Z,19.33
2018-11-23T18:16:20.116Z,17.20
2018-11-23T18:18:49.484Z,17.50
2018-11-23T18:21:18.726Z,27.33
2018-11-23T18:23:49.260Z,18.20
2018-11-23T18:26:18.620Z,18.50
2018-11-23T18:28:47.974Z,18.00
2018-11-23T18:31:18.808Z,17.53
2018-11-23T18:33:48.890Z,18.13
2018-11-23T18:36:19.426Z,17.60
2018-11-23T18:38:49.090Z,16.53
2018-11-23T18:41:18.391Z,15.97
2018-11-23T18:43:49.526Z,15.03
2018-11-23T18:46:18.799Z,14.63
2018-11-23T18:48:48.199Z,15.67
2018-11-23T18:51:17.497Z,16.83
2018-11-23T18:53:46.736Z,18.10
2018-11-23T18:56:16.051Z,17.33
2018-11-23T18:58:46.525Z,17.20
2018-11-23T19:01:15.818Z,17.03
2018-11-23T19:03:45.120Z,17.07
2018-11-23T19:06:14.393Z,17.63
2018-11-23T19:08:44.418Z,17.77
2018-11-23T19:11:13.708Z,17.27
2018-11-23T19:13:43.297Z,16.53
2018-11-23T19:16:12.574Z,20.73
2018-11-23T19:18:42.070Z,21.27
2018-11-23T19:21:11.422Z,22.37
2018-11-23T19:23:47.147Z,21.33
2018-11-23T19:26:16.450Z,21.33
2018-11-23T19:28:45.848Z,22.10
2018-11-23T19:31:15.178Z,23.73
2018-11-23T19:33:44.414Z,28.07
2018-11-23T19:36:13.743Z,31.87
2018-11-23T19:38:43.103Z,24.60
2018-11-23T19:41:12.374Z,24.33
2018-11-23T19:43:41.644Z,25.37
2018-11-23T19:46:10.938Z,23.67
2018-11-23T19:48:40.317Z,23.40
2018-11-23T19:51:09.613Z,25.57
2018-11-23T19:53:38.854Z,26.27
2018-11-23T19:56:08.186Z,30.97
2018-11-23T19:58:37.522Z,30.17
2018-11-23T20:01:07.302Z,25.07
2018-11-23T20:03:36.592Z,26.67
2018-11-23T20:06:06.009Z,27.93
2018-11-23T20:08:35.337Z,22.63
2018-11-23T20:11:04.848Z,18.50
2018-11-23T20:13:34.136Z,19.90
2018-11-23T20:16:03.455Z,17.33
2018-11-23T20:18:32.810Z,19.07
2018-11-23T20:21:02.086Z,20.70
2018-11-23T20:23:31.438Z,26.33
2018-11-23T20:26:00.700Z,22.37
2018-11-23T20:28:30.046Z,22.10
2018-11-23T20:30:59.438Z,19.77
2018-11-23T20:33:28.686Z,28.93
2018-11-23T20:35:58.011Z,34.03
2018-11-23T20:38:27.443Z,24.87
2018-11-23T20:40:56.757Z,23.63
2018-11-23T20:43:26.157Z,17.70
2018-11-23T20:45:55.664Z,20.63
2018-11-23T20:48:25.234Z,16.60
2018-11-23T20:50:54.637Z,14.93
2018-11-23T20:53:23.910Z,13.67
2018-11-23T20:55:53.173Z,11.77
2018-11-23T20:58:22.573Z,9.90
2018-11-23T21:00:51.862Z,10.00
2018-11-23T21:03:21.269Z,8.93
2018-11-23T21:05:50.581Z,8.83
2018-11-23T21:08:20.054Z,7.93
2018-11-23T21:10:49.321Z,8.20
2018-11-23T21:13:18.618Z,8.50
2018-11-23T21:15:47.941Z,8.53
2018-11-23T21:18:17.285Z,8.40
2018-11-23T21:20:46.595Z,8.43
2018-11-23T21:23:15.877Z,9.13
2018-11-23T21:25:45.258Z,8.20
2018-11-23T21:28:14.597Z,12.10
2018-11-23T21:30:43.861Z,22.17
2018-11-23T21:33:13.213Z,63.37
2018-11-23T21:35:42.693Z,48.90
2018-11-23T21:38:12.057Z,45.70
2018-11-23T21:40:44.415Z,25.93
2018-11-23T21:43:10.586Z,13.77
2018-11-23T21:45:39.838Z,10.70
2018-11-23T21:48:09.186Z,11.30
2018-11-23T21:50:38.529Z,12.13
2018-11-23T21:53:07.899Z,11.13
2018-11-23T21:55:37.166Z,11.47
2018-11-23T21:58:06.524Z,8.93
2018-11-23T22:00:35.933Z,10.17
2018-11-23T22:03:05.880Z,5.30
2018-11-23T22:05:35.183Z,5.77
2018-11-23T22:08:04.481Z,6.77
2018-11-23T22:10:33.681Z,7.80
2018-11-23T22:13:02.881Z,6.47
2018-11-23T22:15:32.105Z,4.20
2018-11-23T22:18:01.381Z,4.40
2018-11-23T22:20:30.612Z,4.40
2018-11-23T22:22:59.814Z,4.10
2018-11-23T22:25:29.078Z,3.07
2018-11-23T22:27:58.477Z,2.70
2018-11-23T22:30:30.642Z,4.47
2018-11-23T22:33:00.122Z,2.53
2018-11-23T22:35:30.427Z,2.90
2018-11-23T22:37:59.751Z,2.37
2018-11-23T22:40:29.012Z,2.43
2018-11-23T22:42:59.161Z,2.40
2018-11-23T22:45:28.422Z,8.63
2018-11-23T22:47:57.698Z,3.57
2018-11-23T22:50:26.934Z,2.70
2018-11-23T22:52:56.212Z,2.73
2018-11-23T22:55:25.458Z,1.90
2018-11-23T22:57:55.198Z,2.50
2018-11-23T23:00:32.522Z,1.83
2018-11-23T23:03:01.793Z,2.40
2018-11-23T23:05:31.082Z,9.20
2018-11-23T23:08:00.488Z,4.83
2018-11-23T23:10:29.747Z,4.90
2018-11-23T23:12:58.990Z,4.53
2018-11-23T23:15:28.211Z,5.10
2018-11-23T23:17:57.487Z,4.37
2018-11-23T23:20:26.717Z,4.50
2018-11-23T23:22:55.986Z,4.53
2018-11-23T23:25:25.261Z,5.10
2018-11-23T23:27:54.605Z,4.73
2018-11-23T23:30:24.267Z,5.27
2018-11-23T23:32:53.494Z,4.10
2018-11-23T23:35:22.722Z,4.03
2018-11-23T23:37:51.987Z,4.90
2018-11-23T23:40:21.346Z,4.30
2018-11-23T23:42:50.594Z,3.73
2018-11-23T23:45:20.001Z,3.90
2018-11-23T23:47:49.298Z,3.30
2018-11-23T23:50:20.718Z,3.40
2018-11-23T23:52:50.536Z,3.60
2018-11-23T23:55:19.797Z,4.37
2018-11-23T23:57:49.537Z,4.00
